Time;durP1;ratioP1;P1;durP2;ratioP2;P2;SDS_P1;SDS_P2;PMS_P1;PMS_P2;Temp;Humidity;BMP_temperature;BMP_pressure;BME280_temperature;BME280_humidity;BME280_pressure;Samples;Min_cycle;Max_cycle;Signal;HPM_P1;HPM_P2
2022/05/06 00:00:13;;;;;;;46.02;34.67;;;;;;;10.02;75.13;101896.63;1732062;82;22427;-82
2022/05/06 00:02:41;;;;;;;49.23;34.65;;;;;;;9.95;75.26;101898.49;1712073;82;21305;-86
2022/05/06 00:05:09;;;;;;;41.58;34.23;;;;;;;9.87;75.38;101896.44;1724164;81;21069;-82
2022/05/06 00:07:35;;;;;;;42.78;32.48;;;;;;;9.82;75.48;101898.37;1718724;82;21075;-82
2022/05/06 00:10:04;;;;;;;46.35;32.88;;;;;;;9.77;75.65;101898.56;1723612;81;21120;-82
2022/05/06 00:12:32;;;;;;;35.75;30.10;;;;;;;9.68;75.82;101892.45;1719333;82;22591;-84
2022/05/06 00:14:58;;;;;;;40.90;30.95;;;;;;;9.63;75.96;101893.95;1722761;83;21037;-80
2022/05/06 00:17:25;;;;;;;42.67;32.33;;;;;;;9.57;75.98;101888.41;1733233;82;21601;-80
2022/05/06 00:19:52;;;;;;;39.48;32.10;;;;;;;9.50;75.97;101885.50;1722637;83;21670;-80
2022/05/06 00:22:18;;;;;;;42.08;31.35;;;;;;;9.46;76.11;101882.64;1714130;82;21103;-80
2022/05/06 00:24:45;;;;;;;41.85;31.07;;;;;;;9.42;76.25;101880.31;1722316;81;22867;-81
2022/05/06 00:27:13;;;;;;;38.90;28.17;;;;;;;9.40;76.43;101883.25;1713944;82;21055;-81
2022/05/06 00:29:39;;;;;;;38.30;29.25;;;;;;;9.41;76.51;101885.48;1722867;83;21049;-79
2022/05/06 00:32:07;;;;;;;41.70;27.15;;;;;;;9.43;76.64;101879.89;1730314;82;21082;-81
2022/05/06 00:34:34;;;;;;;38.80;27.40;;;;;;;9.44;76.66;101873.78;1724590;81;21108;-82
2022/05/06 00:37:01;;;;;;;32.83;23.92;;;;;;;9.44;76.60;101873.39;1726507;82;21703;-79
2022/05/06 00:39:28;;;;;;;39.33;24.82;;;;;;;9.42;76.44;101873.73;1723051;81;21534;-81
2022/05/06 00:41:55;;;;;;;29.35;22.45;;;;;;;9.39;76.31;101867.44;1734988;82;21091;-81
2022/05/06 00:44:26;;;;;;;30.52;23.73;;;;;;;9.31;76.22;101862.70;1724994;81;21057;-82
2022/05/06 00:46:52;;;;;;;27.37;22.00;;;;;;;9.33;76.26;101871.98;1722475;81;21072;-82
2022/05/06 00:49:19;;;;;;;30.90;23.87;;;;;;;9.34;76.38;101871.13;1731546;82;21831;-80
2022/05/06 00:51:46;;;;;;;34.33;21.85;;;;;;;9.39;76.56;101875.31;1699901;82;21069;-82
2022/05/06 00:54:13;;;;;;;30.80;22.07;;;;;;;9.41;76.40;101870.61;1726834;82;22005;-80
2022/05/06 00:56:40;;;;;;;30.77;23.07;;;;;;;9.45;76.41;101876.48;1715338;82;21106;-79
2022/05/06 00:59:07;;;;;;;33.02;24.57;;;;;;;9.49;76.43;101877.54;1722025;83;21564;-83
2022/05/06 01:01:36;;;;;;;34.63;26.52;;;;;;;9.54;76.50;101876.92;1733837;82;21736;-79
2022/05/06 01:04:06;;;;;;;32.58;25.12;;;;;;;9.60;76.51;101878.95;1723718;83;21096;-81
2022/05/06 01:06:35;;;;;;;33.45;26.05;;;;;;;9.64;76.46;101879.99;1696391;82;21092;-82
2022/05/06 01:09:02;;;;;;;41.18;28.02;;;;;;;9.67;76.42;101875.78;1700341;82;21081;-79
2022/05/06 01:11:29;;;;;;;39.83;26.27;;;;;;;9.70;76.45;101875.94;1715131;82;21129;-82
2022/05/06 01:13:56;;;;;;;34.27;25.37;;;;;;;9.72;76.35;101874.66;1724314;82;22609;-80
2022/05/06 01:16:23;;;;;;;34.67;25.32;;;;;;;9.75;76.36;101877.45;1724660;81;21029;-83
2022/05/06 01:18:51;;;;;;;32.88;26.02;;;;;;;9.64;76.21;101858.96;1725268;82;21079;-82
2022/05/06 01:21:22;;;;;;;37.88;24.40;;;;;;;9.72;75.99;101878.61;1724874;81;21109;-81
2022/05/06 01:23:48;;;;;;;33.23;23.65;;;;;;;9.67;75.98;101882.78;1711585;82;21092;-80
2022/05/06 01:26:16;;;;;;;31.62;23.25;;;;;;;9.65;76.02;101881.81;1722449;81;21650;-84
2022/05/06 01:28:42;;;;;;;32.00;21.93;;;;;;;9.64;76.05;101874.73;1731908;82;21063;-79
2022/05/06 01:31:09;;;;;;;30.52;21.42;;;;;;;9.61;76.01;101875.50;1723369;81;22110;-83
2022/05/06 01:33:36;;;;;;;34.00;21.60;;;;;;;9.57;75.96;101873.53;1723483;81;21085;-83
2022/05/06 01:36:05;;;;;;;28.67;20.82;;;;;;;9.53;75.86;101875.53;1723940;82;21031;-81
2022/05/06 01:38:43;;;;;;;32.70;20.95;;;;;;;9.48;75.88;101875.34;1722605;82;21773;-82
2022/05/06 01:41:18;;;;;;;31.85;20.72;;;;;;;9.44;75.85;101882.59;1743411;80;21138;-81
2022/05/06 01:43:49;;;;;;;31.60;20.52;;;;;;;9.36;75.67;101881.30;1723601;81;21041;-79
2022/05/06 01:46:16;;;;;;;27.60;20.17;;;;;;;9.28;75.63;101880.94;1723429;80;21073;-80
2022/05/06 01:48:42;;;;;;;32.83;20.08;;;;;;;9.23;75.77;101878.91;1723795;81;21093;-81
2022/05/06 01:51:15;;;;;;;28.00;17.57;;;;;;;9.21;75.83;101871.38;1724441;80;21744;-80
2022/05/06 01:53:42;;;;;;;24.85;17.52;;;;;;;9.16;75.86;101873.80;1741839;81;21081;-83
2022/05/06 01:56:09;;;;;;;26.37;17.10;;;;;;;9.08;75.74;101872.50;1723629;81;21108;-81
2022/05/06 01:58:36;;;;;;;26.17;17.05;;;;;;;9.01;75.76;101871.31;1723714;81;21582;-80
2022/05/06 02:01:06;;;;;;;28.55;17.30;;;;;;;8.93;75.68;101874.88;1719187;80;21598;-80
2022/05/06 02:06:17;;;;;;;24.55;15.65;;;;;;;8.80;75.73;101877.69;1723335;81;21336;-79
2022/05/06 02:08:44;;;;;;;21.10;16.00;;;;;;;8.71;75.66;101880.77;1723941;81;21033;-82
2022/05/06 02:11:11;;;;;;;27.13;16.65;;;;;;;8.65;75.77;101876.91;1723659;81;21044;-79
2022/05/06 02:13:39;;;;;;;25.97;16.07;;;;;;;8.57;75.84;101873.91;1724069;81;21120;-82
2022/05/06 02:16:19;;;;;;;26.68;15.93;;;;;;;8.50;75.92;101875.72;1726112;80;21756;-80
2022/05/06 02:18:48;;;;;;;25.72;15.88;;;;;;;8.45;75.95;101879.44;1757138;80;21104;-82
2022/05/06 02:21:15;;;;;;;27.17;15.50;;;;;;;8.41;75.98;101876.52;1724026;81;21100;-81
2022/05/06 02:23:41;;;;;;;27.82;15.40;;;;;;;8.36;75.99;101874.98;1723852;80;21064;-79
2022/05/06 02:26:09;;;;;;;21.50;14.50;;;;;;;8.32;75.95;101877.86;1723730;81;21072;-81
2022/05/06 02:28:35;;;;;;;27.52;14.78;;;;;;;8.28;75.95;101876.32;1727608;82;21825;-79
2022/05/06 02:33:47;;;;;;;23.18;13.75;;;;;;;8.15;76.00;101878.28;1717534;82;21035;-79
2022/05/06 02:36:14;;;;;;;20.00;12.95;;;;;;;8.12;76.06;101871.97;1740208;80;21614;-81
2022/05/06 02:38:41;;;;;;;20.17;12.10;;;;;;;8.07;76.07;101875.67;1722422;81;21081;-79
2022/05/06 02:41:08;;;;;;;24.47;13.18;;;;;;;8.04;76.04;101872.88;1745609;81;22401;-81
2022/05/06 02:43:37;;;;;;;27.62;12.78;;;;;;;8.00;76.00;101868.30;1754100;81;21553;-81
2022/05/06 02:46:04;;;;;;;19.87;12.78;;;;;;;7.96;75.98;101871.16;1754734;81;21105;-79
2022/05/06 02:48:31;;;;;;;22.58;13.03;;;;;;;7.93;75.98;101868.78;1753183;81;21077;-78
2022/05/06 02:50:58;;;;;;;23.18;12.73;;;;;;;7.91;75.99;101875.25;1737495;80;21023;-81
2022/05/06 02:53:25;;;;;;;19.40;12.80;;;;;;;7.89;75.95;101874.27;1742671;81;23017;-81
2022/05/06 02:55:51;;;;;;;22.58;12.82;;;;;;;7.86;75.92;101875.82;1752905;81;21046;-80
2022/05/06 02:58:18;;;;;;;21.17;13.45;;;;;;;7.85;75.98;101877.97;1746951;81;21058;-82
2022/05/06 03:00:45;;;;;;;21.02;12.15;;;;;;;7.83;75.92;101875.26;1738662;81;21552;-82
2022/05/06 03:03:12;;;;;;;20.50;12.47;;;;;;;7.81;75.94;101882.52;1752069;81;21110;-79
2022/05/06 03:05:38;;;;;;;21.12;12.98;;;;;;;7.79;75.92;101881.16;1740013;81;22588;-81
2022/05/06 03:08:06;;;;;;;25.20;12.88;;;;;;;7.78;75.93;101883.27;1744204;81;21239;-79
2022/05/06 03:10:33;;;;;;;20.90;12.82;;;;;;;7.77;75.98;101882.77;1738361;81;21567;-80
2022/05/06 03:12:59;;;;;;;19.80;13.20;;;;;;;7.77;75.96;101887.63;1748190;80;21439;-82
2022/05/06 03:15:26;;;;;;;24.23;12.93;;;;;;;7.78;75.97;101893.34;1754839;81;21065;-81
2022/05/06 03:17:53;;;;;;;21.68;13.03;;;;;;;7.81;76.00;101893.01;1754579;80;21828;-82
2022/05/06 03:20:20;;;;;;;24.47;12.58;;;;;;;7.83;75.95;101894.91;1737032;81;21057;-80
2022/05/06 03:22:50;;;;;;;18.85;11.93;;;;;;;7.87;75.98;101890.33;1750644;81;21072;-80
2022/05/06 03:25:20;;;;;;;18.30;11.25;;;;;;;7.93;75.96;101886.72;1746445;81;21058;-82
2022/05/06 03:28:09;;;;;;;;;;;;;;;;;;;;;
2022/05/06 03:30:31;;;;;;;18.20;10.72;;;;;;;8.11;76.05;101887.23;1737995;80;21152;-80
2022/05/06 03:33:01;;;;;;;21.85;11.03;;;;;;;8.41;76.28;101887.94;1725833;81;21095;-81
2022/05/06 03:35:28;;;;;;;21.27;11.10;;;;;;;8.77;76.31;101885.43;1727734;80;21562;-82
2022/05/06 03:37:55;;;;;;;15.88;10.32;;;;;;;9.38;76.46;101887.53;1726432;81;21068;-80
2022/05/06 03:40:22;;;;;;;17.73;10.15;;;;;;;10.16;76.46;101886.33;1735637;81;21082;-81
2022/05/06 03:42:49;;;;;;;21.23;10.88;;;;;;;11.09;75.84;101886.86;1740048;80;21732;-81
2022/05/06 03:45:16;;;;;;;16.90;9.60;;;;;;;11.92;74.72;101890.57;1716573;81;21059;-82
2022/05/06 03:47:43;;;;;;;13.72;8.95;;;;;;;12.72;73.93;101886.82;1721248;82;21072;-82
2022/05/06 03:52:56;;;;;;;16.85;8.10;;;;;;;14.26;71.43;101886.34;1749467;81;21081;-81
2022/05/06 03:55:23;;;;;;;14.50;8.20;;;;;;;14.89;70.02;101869.52;1713448;81;21940;-80
2022/05/06 03:57:49;;;;;;;13.22;8.35;;;;;;;15.57;69.02;101885.72;1732736;81;21098;-80
2022/05/06 04:00:17;;;;;;;14.63;7.80;;;;;;;16.11;67.57;101890.45;1731960;81;21077;-81
2022/05/06 04:02:44;;;;;;;15.53;8.00;;;;;;;16.62;66.67;101890.11;1746793;81;21065;-83
2022/05/06 04:05:10;;;;;;;13.38;7.60;;;;;;;17.16;65.44;101892.40;1748197;81;21615;-84
2022/05/06 04:07:37;;;;;;;11.30;7.40;;;;;;;17.67;64.81;101891.83;1728576;81;21754;-81
2022/05/06 04:10:05;;;;;;;11.15;6.80;;;;;;;18.28;63.58;101897.06;1736269;81;21078;-83
2022/05/06 04:12:32;;;;;;;10.78;6.85;;;;;;;18.70;62.42;101890.41;1738834;81;21078;-83
2022/05/06 04:15:00;;;;;;;12.95;6.85;;;;;;;19.31;61.83;101891.37;1744056;81;21085;-82
2022/05/06 04:17:26;;;;;;;11.22;6.75;;;;;;;19.96;60.50;101892.69;1737853;81;20991;-83
2022/05/06 04:25:45;;;;;;;11.80;6.30;;;;;;;21.24;56.81;101891.59;1736043;81;21151;-80
2022/05/06 04:28:12;;;;;;;9.95;6.10;;;;;;;21.90;56.20;101890.58;1736506;81;21117;-82
2022/05/06 04:30:39;;;;;;;9.10;6.28;;;;;;;22.50;55.11;101894.34;1749206;81;22261;-82
2022/05/06 04:33:06;;;;;;;16.80;7.22;;;;;;;22.96;54.09;101886.42;1741525;81;21865;-83
2022/05/06 04:35:33;;;;;;;10.23;5.65;;;;;;;23.89;52.41;101901.20;1710749;82;21086;-81
2022/05/06 04:38:00;;;;;;;9.45;6.12;;;;;;;23.89;52.41;101901.20;1751345;81;21042;-82
2022/05/06 04:40:27;;;;;;;10.72;6.20;;;;;;;24.40;51.11;101894.25;1711531;81;21607;-85
2022/05/06 04:42:53;;;;;;;10.15;5.92;;;;;;;24.75;49.91;101894.66;1734948;81;21093;-83
2022/05/06 04:45:20;;;;;;;10.68;6.08;;;;;;;24.98;49.18;101890.23;1746701;81;22553;-82
2022/05/06 04:47:47;;;;;;;9.38;5.72;;;;;;;25.47;48.50;101895.23;1743443;81;21434;-82
2022/05/06 04:50:17;;;;;;;10.70;6.42;;;;;;;25.86;47.90;101892.20;1751229;81;21082;-81
2022/05/06 04:52:43;;;;;;;7.40;5.17;;;;;;;26.30;47.03;101896.27;1750719;81;21126;-85
2022/05/06 04:55:09;;;;;;;11.03;6.80;;;;;;;26.80;46.64;101900.95;1721120;81;21074;-81
2022/05/06 04:57:36;;;;;;;12.90;6.40;;;;;;;27.36;45.59;101905.88;1739066;81;21720;-81
2022/05/06 05:00:07;;;;;;;11.20;6.33;;;;;;;27.59;44.29;101901.65;1726791;81;21136;-81
2022/05/06 05:02:34;;;;;;;7.53;5.30;;;;;;;28.07;44.20;101905.27;1738778;81;21070;-82
2022/05/06 05:05:03;;;;;;;9.30;5.67;;;;;;;28.44;42.81;101901.44;1743796;81;21074;-82
2022/05/06 05:07:30;;;;;;;10.50;5.92;;;;;;;28.40;41.85;101903.34;1738982;81;21058;-82
2022/05/06 05:09:57;;;;;;;13.50;6.00;;;;;;;28.54;41.21;101897.52;1736254;81;21751;-82
2022/05/06 05:12:28;;;;;;;8.70;5.80;;;;;;;28.84;41.36;101902.88;1741739;81;21090;-84
2022/05/06 05:14:52;;;;;;;9.90;6.10;;;;;;;29.18;40.65;101902.64;1745160;81;21070;-81
2022/05/06 05:17:19;;;;;;;10.45;6.00;;;;;;;29.70;40.26;101898.53;1741214;81;21137;-81
2022/05/06 05:19:46;;;;;;;10.85;5.75;;;;;;;29.97;39.17;101906.61;1750592;81;21570;-83
2022/05/06 05:22:12;;;;;;;10.98;5.72;;;;;;;29.97;38.14;101902.05;1737015;81;22604;-83
2022/05/06 05:24:39;;;;;;;9.93;5.90;;;;;;;29.78;37.98;101909.13;1742337;81;21049;-83
2022/05/06 05:27:06;;;;;;;8.15;5.87;;;;;;;29.40;37.16;101918.17;1743098;81;21078;-83
2022/05/06 05:29:33;;;;;;;9.40;5.75;;;;;;;29.18;37.39;101916.67;1748033;81;21586;-82
2022/05/06 05:32:00;;;;;;;8.45;5.90;;;;;;;28.80;37.04;101914.76;1740280;81;21558;-84
2022/05/06 05:34:27;;;;;;;10.32;6.30;;;;;;;27.63;36.18;101916.41;1743800;81;22713;-82
2022/05/06 05:36:54;;;;;;;9.55;6.30;;;;;;;25.65;36.08;101915.58;1738073;81;21095;-83
2022/05/06 05:39:21;;;;;;;9.58;5.90;;;;;;;23.67;36.81;101921.59;1744196;81;21078;-81
2022/05/06 05:41:48;;;;;;;8.03;5.65;;;;;;;22.16;38.08;101923.98;1748770;81;21150;-80
2022/05/06 05:49:45;;;;;;;9.30;5.70;;;;;;;19.10;41.06;101925.93;1747649;81;21046;-81
2022/05/06 05:52:12;;;;;;;8.48;6.35;;;;;;;18.24;42.05;101925.89;1743649;80;21117;-82
2022/05/06 05:54:39;;;;;;;9.13;6.83;;;;;;;17.61;42.84;101936.57;1721978;81;21647;-82
2022/05/06 05:57:06;;;;;;;12.25;6.92;;;;;;;17.06;43.80;101932.59;1742444;81;22158;-82
2022/05/06 05:59:34;;;;;;;10.38;6.45;;;;;;;16.60;44.54;101933.05;1751440;81;21913;-80
2022/05/06 06:02:03;;;;;;;12.13;6.97;;;;;;;16.21;45.28;101935.80;1739630;81;21125;-80
2022/05/06 06:04:30;;;;;;;10.63;6.67;;;;;;;15.98;46.07;101933.56;1735677;81;21087;-78
2022/05/06 06:06:57;;;;;;;13.88;6.53;;;;;;;15.83;46.60;101940.75;1742897;81;21081;-79
2022/05/06 06:09:24;;;;;;;9.55;6.65;;;;;;;15.67;47.10;101937.24;1740084;81;21456;-79
2022/05/06 06:11:54;;;;;;;10.93;6.65;;;;;;;15.48;47.57;101938.13;1751107;81;21822;-79
2022/05/06 06:14:21;;;;;;;11.25;6.50;;;;;;;15.31;48.01;101931.09;1746075;81;21050;-79
2022/05/06 06:16:50;;;;;;;9.00;6.83;;;;;;;15.27;48.45;101927.02;1748747;81;21743;-79
2022/05/06 06:19:17;;;;;;;12.00;6.40;;;;;;;15.21;48.79;101931.74;1745317;81;21058;-79
2022/05/06 06:21:44;;;;;;;10.98;7.17;;;;;;;15.14;49.10;101933.33;1751284;81;21480;-80
2022/05/06 06:24:11;;;;;;;11.40;7.33;;;;;;;15.10;49.52;101934.12;1738222;81;22512;-82
2022/05/06 06:26:39;;;;;;;11.05;7.00;;;;;;;14.96;49.70;101933.77;1740569;81;21066;-81
2022/05/06 06:29:06;;;;;;;13.38;7.70;;;;;;;14.82;49.95;101938.25;1746048;81;21090;-80
2022/05/06 06:31:38;;;;;;;14.93;7.15;;;;;;;14.68;50.46;101934.80;1741213;81;21141;-79
2022/05/06 06:34:02;;;;;;;10.13;6.35;;;;;;;14.62;50.84;101939.94;1743200;81;21082;-79
2022/05/06 06:36:29;;;;;;;18.50;7.35;;;;;;;14.53;51.09;101934.36;1741243;81;21851;-79
2022/05/06 06:38:56;;;;;;;14.90;7.30;;;;;;;14.49;51.49;101936.42;1744106;81;21066;-80
2022/05/06 06:41:23;;;;;;;14.25;6.97;;;;;;;14.47;51.70;101935.08;1748637;81;21066;-80
2022/05/06 06:43:50;;;;;;;10.82;7.25;;;;;;;14.46;51.96;101938.57;1745953;81;22128;-80
2022/05/06 06:46:16;;;;;;;11.25;6.87;;;;;;;14.40;52.03;101939.73;1748262;81;21101;-81
2022/05/06 06:48:44;;;;;;;12.93;7.47;;;;;;;14.32;52.25;101943.48;1748376;81;22894;-80
2022/05/06 06:51:11;;;;;;;11.55;7.37;;;;;;;14.27;52.47;101945.53;1750347;81;21113;-80
2022/05/06 06:53:37;;;;;;;10.08;6.70;;;;;;;14.24;52.74;101950.73;1747277;81;21078;-80
2022/05/06 06:56:04;;;;;;;10.53;6.83;;;;;;;14.17;52.97;101942.62;1743917;81;21082;-82
2022/05/06 06:58:31;;;;;;;15.30;7.05;;;;;;;14.14;53.30;101944.27;1741474;81;21097;-80
2022/05/06 07:00:58;;;;;;;9.50;6.37;;;;;;;14.16;53.48;101939.91;1739031;81;21586;-82
2022/05/06 07:03:25;;;;;;;10.85;5.75;;;;;;;14.26;53.77;101940.64;1734721;81;21605;-81
2022/05/06 07:14:13;;;;;;;9.50;6.20;;;;;;;14.45;54.15;101938.52;1736745;81;21776;-82
2022/05/06 07:16:40;;;;;;;9.20;6.30;;;;;;;14.52;54.28;101940.49;1748689;81;21065;-79
2022/05/06 07:19:11;;;;;;;10.55;6.22;;;;;;;14.56;54.32;101947.27;1746113;81;21650;-81
2022/05/06 07:21:38;;;;;;;10.03;5.45;;;;;;;14.64;54.49;101950.16;1729128;81;21547;-79
2022/05/06 07:24:10;;;;;;;7.62;5.50;;;;;;;14.72;54.39;101948.59;1742270;81;21148;-81
2022/05/06 07:26:37;;;;;;;6.97;5.22;;;;;;;14.77;54.38;101956.66;1750567;81;21766;-81
2022/05/06 07:29:07;;;;;;;10.10;4.90;;;;;;;14.82;54.38;101950.17;1746767;81;21006;-78
2022/05/06 07:31:34;;;;;;;6.08;4.45;;;;;;;14.89;54.49;101950.38;1743823;81;21093;-80
2022/05/06 07:34:02;;;;;;;11.30;5.33;;;;;;;14.97;54.50;101954.55;1746558;81;21114;-82
2022/05/06 07:36:29;;;;;;;9.23;4.50;;;;;;;15.00;54.40;101953.31;1747385;81;21051;-80
2022/05/06 07:38:56;;;;;;;7.10;4.17;;;;;;;15.07;54.20;101952.63;1739083;81;22596;-82
2022/05/06 07:41:23;;;;;;;8.55;5.00;;;;;;;15.07;54.18;101947.72;1742125;81;21537;-82
2022/05/06 07:43:50;;;;;;;7.35;5.28;;;;;;;15.11;54.09;101950.95;1742187;81;21078;-82
2022/05/06 07:46:17;;;;;;;7.85;5.33;;;;;;;15.11;54.05;101947.86;1748595;81;21099;-80
2022/05/06 07:48:44;;;;;;;7.87;4.22;;;;;;;15.15;54.21;101955.47;1745280;81;21544;-80
2022/05/06 07:51:11;;;;;;;7.33;4.30;;;;;;;15.22;54.34;101949.47;1745701;81;21742;-80
2022/05/06 07:53:37;;;;;;;7.65;4.53;;;;;;;15.34;54.34;101948.86;1732079;81;21078;-79
2022/05/06 07:56:04;;;;;;;5.05;3.95;;;;;;;15.44;54.23;101947.33;1734463;81;21146;-79
2022/05/06 07:58:31;;;;;;;7.25;4.28;;;;;;;15.47;54.06;101948.30;1733070;81;21066;-80
2022/05/06 08:00:58;;;;;;;5.65;3.92;;;;;;;15.46;53.83;101953.13;1748168;82;21129;-82
2022/05/06 08:06:11;;;;;;;5.85;3.50;;;;;;;15.35;53.54;101953.30;1727193;81;21346;-83
2022/05/06 08:08:38;;;;;;;5.80;3.35;;;;;;;15.42;53.83;101951.70;1750197;81;21033;-78
2022/05/06 08:11:05;;;;;;;8.00;3.62;;;;;;;15.51;53.49;101949.27;1749996;80;21263;-79
2022/05/06 08:13:32;;;;;;;5.37;3.85;;;;;;;15.43;53.15;101936.23;1742972;81;21111;-79
2022/05/06 08:15:59;;;;;;;7.60;3.58;;;;;;;15.59;53.40;101958.73;1748510;82;22600;-79
2022/05/06 08:18:26;;;;;;;8.80;4.45;;;;;;;15.67;53.24;101950.11;1748216;81;21129;-79
2022/05/06 08:20:53;;;;;;;7.20;3.92;;;;;;;15.77;53.19;101947.27;1748187;81;21556;-78
2022/05/06 08:23:21;;;;;;;6.62;3.40;;;;;;;15.91;53.18;101946.23;1748197;81;21062;-81
2022/05/06 08:25:50;;;;;;;7.30;4.35;;;;;;;16.06;52.86;101956.30;1734201;81;21123;-81
2022/05/06 08:28:19;;;;;;;8.45;4.10;;;;;;;16.13;52.83;101952.47;1750029;81;21826;-81
2022/05/06 08:30:48;;;;;;;6.37;3.62;;;;;;;16.28;52.82;101951.91;1727963;81;21350;-81
2022/05/06 08:33:16;;;;;;;8.80;4.20;;;;;;;16.46;52.77;101951.80;1751291;81;21046;-81
2022/05/06 08:35:43;;;;;;;5.60;3.87;;;;;;;16.63;52.35;101947.73;1751621;81;21110;-81
2022/05/06 08:38:10;;;;;;;8.80;5.08;;;;;;;16.83;52.10;101948.56;1751825;81;21062;-79
2022/05/06 08:40:36;;;;;;;9.83;3.80;;;;;;;16.95;51.97;101946.55;1721499;81;21753;-79
2022/05/06 08:43:04;;;;;;;12.50;10.55;;;;;;;16.87;51.89;101922.07;1751655;81;21035;-79
2022/05/06 08:51:03;;;;;;;9.10;6.40;;;;;;;17.35;50.82;101950.80;1748482;81;21121;-78
2022/05/06 08:53:36;;;;;;;6.00;3.75;;;;;;;17.60;50.51;101965.38;1749948;81;21795;-79
2022/05/06 08:56:04;;;;;;;9.40;7.50;;;;;;;17.73;49.64;101948.27;1730764;81;21074;-79
2022/05/06 08:58:41;;;;;;;4.70;3.00;;;;;;;17.82;49.29;101955.06;1745793;81;21088;-79
2022/05/06 09:01:09;;;;;;;3.80;2.42;;;;;;;17.75;48.90;101956.73;1725991;81;21104;-80
2022/05/06 09:03:43;;;;;;;6.00;5.00;;;;;;;17.57;48.67;101958.70;1730078;81;21058;-82
2022/05/06 09:06:21;;;;;;;8.48;4.72;;;;;;;17.50;48.61;101959.47;1724062;83;21801;-81
2022/05/06 09:08:49;;;;;;;3.00;2.60;;;;;;;17.59;48.66;101960.95;1732023;82;21062;-82
2022/05/06 09:11:17;;;;;;;4.08;2.45;;;;;;;17.77;48.58;101958.98;1714504;82;21065;-80
2022/05/06 09:13:55;;;;;;;3.35;2.70;;;;;;;17.97;48.73;101961.08;1721188;82;21241;-80
2022/05/06 09:16:41;;;;;;;8.48;6.45;;;;;;;18.26;48.54;101956.12;1723700;83;21050;-80
2022/05/06 09:19:25;;;;;;;3.83;3.10;;;;;;;18.42;47.63;101963.44;1740358;82;22444;-81
2022/05/06 09:22:04;;;;;;;;;;;;;;;18.32;47.28;101963.30;1725995;83;21061;-81
2022/05/06 09:24:33;;;;;;;5.10;2.98;;;;;;;18.18;47.15;101976.45;1726059;82;20299;-81
2022/05/06 09:27:09;;;;;;;5.95;3.27;;;;;;;18.10;47.25;101969.70;1735819;82;21679;-83
2022/05/06 09:29:50;;;;;;;7.90;4.10;;;;;;;18.17;46.89;101973.32;1723379;81;20998;-82
2022/05/06 09:32:28;;;;;;;5.10;2.50;;;;;;;18.40;46.67;101969.64;1740415;81;21854;-82
2022/05/06 09:34:58;;;;;;;3.08;2.30;;;;;;;18.76;46.48;101969.59;1721102;81;21581;-83
2022/05/06 09:37:46;;;;;;;6.83;5.42;;;;;;;19.08;46.37;101961.94;1752110;80;21061;-83
2022/05/06 09:40:16;;;;;;;9.85;3.77;;;;;;;19.29;46.16;101981.25;1734859;81;21071;-81
2022/05/06 09:42:59;;;;;;;3.85;3.17;;;;;;;19.28;45.44;101976.81;1692405;83;21705;-80
2022/05/06 09:45:38;;;;;;;5.53;4.03;;;;;;;19.24;45.28;101975.00;1740540;80;21831;-80
2022/05/06 09:48:06;;;;;;;6.45;3.42;;;;;;;19.30;45.13;101975.48;1733590;81;21066;-81
2022/05/06 09:50:41;;;;;;;6.80;3.40;;;;;;;19.39;45.01;101977.79;1733848;82;21576;-81
2022/05/06 09:53:14;;;;;;;4.95;2.52;;;;;;;19.52;45.40;101973.86;1722337;81;21112;-79
2022/05/06 09:55:49;;;;;;;3.83;2.00;;;;;;;19.83;45.17;101968.78;1751137;81;21069;-81
2022/05/06 09:58:14;;;;;;;3.95;1.90;;;;;;;20.11;44.99;101956.47;1739025;80;22289;-80
2022/05/06 10:00:41;;;;;;;7.60;4.33;;;;;;;20.46;44.41;101965.05;1742187;82;21070;-80
2022/05/06 10:03:09;;;;;;;6.67;4.87;;;;;;;20.71;44.55;101967.41;1740128;80;21103;-81
2022/05/06 10:05:36;;;;;;;10.20;4.60;;;;;;;20.63;44.58;101976.76;1711630;82;21145;-79
2022/05/06 10:08:16;;;;;;;12.75;6.42;;;;;;;20.47;44.43;101973.09;1740502;80;21814;-79
2022/05/06 10:10:50;;;;;;;11.83;5.50;;;;;;;20.23;44.53;101983.69;1723976;82;21868;-80
2022/05/06 10:13:21;;;;;;;9.28;6.25;;;;;;;20.02;44.98;101980.02;1739985;80;21073;-84
2022/05/06 10:15:50;;;;;;;9.30;5.78;;;;;;;19.94;45.23;101977.30;1741311;80;21051;-82
2022/05/06 10:18:34;;;;;;;7.70;5.70;;;;;;;19.87;45.36;101980.82;1741669;82;21059;-83
2022/05/06 10:21:03;;;;;;;9.58;6.17;;;;;;;20.06;45.60;101975.13;1727077;80;21126;-80
2022/05/06 10:23:53;;;;;;;9.05;5.22;;;;;;;20.21;45.51;101975.66;1723108;81;21711;-86
2022/05/06 10:26:45;;;;;;;9.85;6.40;;;;;;;20.35;45.55;101977.95;1725512;82;21054;-83
2022/05/06 10:32:46;;;;;;;11.48;6.78;;;;;;;20.18;45.24;101978.34;1697463;83;21710;-79
2022/05/06 10:35:15;;;;;;;11.15;5.78;;;;;;;20.03;44.82;101979.15;1725337;81;21128;-80
2022/05/06 10:37:45;;;;;;;9.58;5.55;;;;;;;19.92;45.31;101980.41;1737698;81;22406;-79
2022/05/06 10:40:31;;;;;;;6.42;3.00;;;;;;;20.01;45.20;101979.59;1726566;82;21678;-79
2022/05/06 10:42:57;;;;;;;7.37;2.47;;;;;;;19.88;43.80;101988.42;1737693;82;21095;-81
2022/05/06 10:45:32;;;;;;;9.23;6.15;;;;;;;19.72;43.90;101992.72;1726841;81;21582;-79
2022/05/06 10:47:59;;;;;;;8.13;5.85;;;;;;;19.64;45.02;101992.66;1757235;80;21121;-79
2022/05/06 10:50:29;;;;;;;8.73;6.92;;;;;;;19.55;45.64;101990.80;1727608;81;22476;-80
2022/05/06 10:52:55;;;;;;;10.35;7.55;;;;;;;19.34;45.67;101984.86;1734686;81;21075;-79
2022/05/06 10:55:22;;;;;;;14.00;8.33;;;;;;;19.17;45.93;101988.71;1709885;81;21081;-81
2022/05/06 10:57:56;;;;;;;11.88;8.85;;;;;;;19.08;46.28;101989.95;1757821;80;21078;-79
2022/05/06 11:00:25;;;;;;;16.27;9.10;;;;;;;18.95;46.61;101988.94;1727560;82;21117;-81
2022/05/06 11:02:52;;;;;;;10.93;6.78;;;;;;;18.93;47.09;102001.38;1737920;80;21750;-79
2022/05/06 11:05:20;;;;;;;10.32;6.67;;;;;;;18.76;46.86;101994.94;1757416;80;21277;-79
2022/05/06 11:07:49;;;;;;;11.35;7.17;;;;;;;18.44;47.23;101988.34;1727523;83;21724;-80
2022/05/06 11:10:20;;;;;;;13.15;7.50;;;;;;;18.34;47.59;101998.45;1757558;80;21607;-80
2022/05/06 11:12:49;;;;;;;13.50;7.37;;;;;;;18.18;47.82;101986.67;1727263;81;21053;-79
2022/05/06 11:15:20;;;;;;;11.38;6.97;;;;;;;18.16;48.20;101990.20;1735947;80;21404;-79
2022/05/06 11:17:49;;;;;;;15.10;7.58;;;;;;;18.08;48.22;101995.87;1751205;80;21086;-82
2022/05/06 11:20:31;;;;;;;9.40;7.30;;;;;;;18.04;48.70;101990.48;1707397;82;21072;-82
2022/05/06 11:23:09;;;;;;;11.20;6.53;;;;;;;18.24;48.94;101988.52;1738718;82;21624;-82
2022/05/06 11:26:00;;;;;;;9.50;7.45;;;;;;;18.36;48.91;101989.14;1730298;82;21125;-79
2022/05/06 11:28:30;;;;;;;10.55;7.67;;;;;;;18.48;49.04;101983.94;1729661;82;21044;-81
2022/05/06 11:30:55;;;;;;;11.80;8.18;;;;;;;18.53;48.73;101991.56;1731953;81;21769;-79
2022/05/06 11:33:27;;;;;;;15.83;7.53;;;;;;;18.37;48.94;101989.13;1754263;80;21084;-79
2022/05/06 11:36:01;;;;;;;14.63;10.18;;;;;;;18.31;48.98;101988.18;1708525;81;21565;-82
2022/05/06 11:38:36;;;;;;;11.90;7.75;;;;;;;18.25;49.10;101986.33;1738312;81;21078;-81
2022/05/06 11:41:13;;;;;;;10.08;8.10;;;;;;;18.32;49.36;101986.88;1725407;81;21769;-80
2022/05/06 11:43:41;;;;;;;10.95;7.28;;;;;;;18.43;49.27;101998.98;1741439;82;21086;-79
2022/05/06 11:49:02;;;;;;;15.00;8.28;;;;;;;18.31;49.10;101992.17;1721974;81;21224;-82
2022/05/06 11:51:44;;;;;;;10.53;7.37;;;;;;;18.08;49.42;101989.22;1739474;81;21070;-82
2022/05/06 11:54:11;;;;;;;11.55;8.08;;;;;;;17.88;49.47;101992.02;1743940;81;21816;-82
2022/05/06 11:56:38;;;;;;;10.85;7.67;;;;;;;17.71;49.83;101988.19;1743838;81;21135;-79
2022/05/06 11:59:07;;;;;;;10.30;7.20;;;;;;;17.60;50.07;101992.45;1747050;81;21063;-82
2022/05/06 12:01:35;;;;;;;14.18;7.87;;;;;;;17.48;50.25;101991.83;1740553;81;21075;-82
2022/05/06 12:04:05;;;;;;;10.75;7.62;;;;;;;17.56;50.45;101986.17;1747423;81;21109;-82
2022/05/06 12:06:32;;;;;;;8.58;7.42;;;;;;;17.60;50.59;101988.02;1733818;81;21761;-81
2022/05/06 12:09:21;;;;;;;8.93;7.70;;;;;;;17.68;50.63;101979.73;1736150;81;21715;-80
2022/05/06 12:12:02;;;;;;;11.10;7.97;;;;;;;17.82;50.73;101978.59;1741585;81;21077;-79